Crescent Park, Kentucky
Current Conditions -  °F | °C
As of 8:13 PM on Friday 28 Nov 2014 (Local Time) from KI69 Reporting Station
Clear Clear  
Wind Chill: 28°   Ceiling: Unl
Heat Index: 34°   Visibility: 10mi
Dew Point: 19°   Wind: 7mph
Humidity: 56%   Direction: 170°S
Pressure: 30.14"   Gusts: NA
Location:  39.0279°N, 84.5635°W
Report Text: KI69 290113Z AUTO 17006KT 10SM CLR 01/M07 A3014 RMK AO1
Loading
Personal Weather Stations






























Interactive Weather Map New forecast layout! Learn more

10-Day Weather Forecast

Advertisements
Track Severe Weather on mobile